createdAt,value
2023-01-08T00:01:09.260Z,4.48
2023-01-08T00:03:37.250Z,4.39
2023-01-08T00:06:07.049Z,4.42
2023-01-08T00:08:33.859Z,4.42
2023-01-08T00:11:00.643Z,4.46
2023-01-08T00:13:27.321Z,4.43
2023-01-08T00:15:54.331Z,4.47
2023-01-08T00:18:21.573Z,4.45
2023-01-08T00:20:48.410Z,4.42
2023-01-08T00:23:16.699Z,4.37
2023-01-08T00:25:43.829Z,4.32
2023-01-08T00:28:10.553Z,4.31
2023-01-08T00:30:37.982Z,4.26
2023-01-08T00:33:04.832Z,4.34
2023-01-08T00:35:31.658Z,4.25
2023-01-08T00:37:58.344Z,4.28
2023-01-08T00:40:24.898Z,4.32
2023-01-08T00:42:51.534Z,4.23
2023-01-08T00:45:18.191Z,4.22
2023-01-08T00:47:44.801Z,4.17
2023-01-08T00:50:11.491Z,4.08
2023-01-08T00:52:38.607Z,4.11
2023-01-08T00:55:05.758Z,4.09
2023-01-08T00:57:34.157Z,4.13
2023-01-08T01:00:00.993Z,4.10
2023-01-08T01:02:27.958Z,4.08
2023-01-08T01:04:54.890Z,4.00
2023-01-08T01:07:21.560Z,4.08
2023-01-08T01:09:48.198Z,4.05
2023-01-08T01:12:15.137Z,4.00
2023-01-08T01:14:41.879Z,3.77
2023-01-08T01:17:08.520Z,3.95
2023-01-08T01:19:35.792Z,3.86
2023-01-08T01:22:02.456Z,3.86
2023-01-08T01:24:29.032Z,3.81
2023-01-08T01:26:56.767Z,3.75
2023-01-08T01:29:24.070Z,3.69
2023-01-08T01:31:50.851Z,3.67
2023-01-08T01:34:17.491Z,3.63
2023-01-08T01:36:44.122Z,3.60
2023-01-08T01:39:10.772Z,3.62
2023-01-08T01:41:39.285Z,3.57
2023-01-08T01:44:33.554Z,3.61
2023-01-08T01:47:02.950Z,3.63
2023-01-08T01:49:30.577Z,3.62
2023-01-08T01:52:02.460Z,3.54
2023-01-08T01:54:31.260Z,3.55
2023-01-08T01:56:59.671Z,3.45
2023-01-08T01:59:26.391Z,3.54
2023-01-08T02:01:54.178Z,3.52
2023-01-08T02:04:20.934Z,3.46
2023-01-08T02:07:11.841Z,3.46
2023-01-08T02:10:17.155Z,3.40
2023-01-08T02:13:10.116Z,3.28
2023-01-08T02:15:54.644Z,3.30
2023-01-08T02:18:27.390Z,3.30
2023-01-08T02:20:58.975Z,3.27
2023-01-08T02:23:40.583Z,3.28
2023-01-08T02:26:17.889Z,3.38
2023-01-08T02:29:09.360Z,3.37
2023-01-08T02:31:39.695Z,3.24
2023-01-08T02:34:07.152Z,3.18
2023-01-08T02:36:48.443Z,3.16
2023-01-08T02:39:22.844Z,3.19
2023-01-08T02:42:01.592Z,3.16
2023-01-08T02:44:55.570Z,3.14
2023-01-08T02:47:36.047Z,3.14
2023-01-08T02:50:18.721Z,3.10
2023-01-08T02:53:09.470Z,3.27
2023-01-08T02:55:39.234Z,3.33
2023-01-08T02:58:06.878Z,3.28
2023-01-08T03:00:33.987Z,3.31
2023-01-08T03:03:28.565Z,3.27
2023-01-08T03:06:00.056Z,3.23
2023-01-08T03:08:28.114Z,3.18
2023-01-08T03:11:07.023Z,3.19
2023-01-08T03:14:09.929Z,3.21
2023-01-08T03:16:41.460Z,3.24
2023-01-08T03:19:33.075Z,3.14
2023-01-08T03:22:02.537Z,3.25
2023-01-08T03:24:34.054Z,3.19
2023-01-08T03:27:05.041Z,3.25
2023-01-08T03:29:33.717Z,3.18
2023-01-08T03:32:04.804Z,3.22
2023-01-08T03:34:33.411Z,3.16
2023-01-08T03:37:03.976Z,3.33
2023-01-08T03:39:37.974Z,3.32
2023-01-08T03:42:09.950Z,3.22
2023-01-08T03:44:36.735Z,3.29
2023-01-08T03:47:04.211Z,3.27
2023-01-08T03:49:31.257Z,3.20
2023-01-08T03:51:57.978Z,3.20
2023-01-08T03:54:30.028Z,3.23
2023-01-08T03:56:56.695Z,3.16
2023-01-08T03:59:23.398Z,3.11
2023-01-08T04:01:50.294Z,3.22
2023-01-08T04:04:17.437Z,3.18
2023-01-08T04:06:44.110Z,3.18
2023-01-08T04:09:10.778Z,3.16
2023-01-08T04:11:37.594Z,3.17
2023-01-08T04:14:04.248Z,3.19
2023-01-08T04:16:31.845Z,3.20
2023-01-08T04:18:58.459Z,3.12
2023-01-08T04:21:25.083Z,3.11
2023-01-08T04:23:51.705Z,3.11
2023-01-08T04:26:18.322Z,3.07
2023-01-08T04:28:44.893Z,2.98
2023-01-08T04:31:11.536Z,3.00
2023-01-08T04:33:38.290Z,2.80
2023-01-08T04:36:05.569Z,2.90
2023-01-08T04:38:32.186Z,2.88
2023-01-08T04:41:00.197Z,2.93
2023-01-08T04:43:27.501Z,2.97
2023-01-08T04:45:58.935Z,2.81
2023-01-08T04:48:25.729Z,2.86
2023-01-08T04:50:52.409Z,2.89
2023-01-08T04:53:19.002Z,2.84
2023-01-08T04:55:45.604Z,2.82
2023-01-08T04:58:12.560Z,2.76
2023-01-08T05:00:40.129Z,2.74
2023-01-08T05:03:06.870Z,2.73
2023-01-08T05:05:34.144Z,2.58
2023-01-08T05:08:00.813Z,2.61
2023-01-08T05:10:27.442Z,2.63
2023-01-08T05:12:59.055Z,2.64
2023-01-08T05:15:25.877Z,2.63
2023-01-08T05:18:04.305Z,2.48
2023-01-08T05:20:32.659Z,2.44
2023-01-08T05:22:59.370Z,2.47
2023-01-08T05:25:26.055Z,2.53
2023-01-08T05:27:52.928Z,2.43
2023-01-08T05:30:19.685Z,2.44
2023-01-08T05:32:46.231Z,2.29
2023-01-08T05:35:12.887Z,2.48
2023-01-08T05:37:39.573Z,2.42
2023-01-08T05:40:06.498Z,2.34
2023-01-08T05:42:36.840Z,2.29
2023-01-08T05:45:08.187Z,2.33
2023-01-08T05:47:35.255Z,2.33
2023-01-08T05:50:02.215Z,2.39
2023-01-08T05:52:29.279Z,2.34
2023-01-08T05:54:55.948Z,2.32
2023-01-08T05:57:22.513Z,2.27
2023-01-08T05:59:49.146Z,2.34
2023-01-08T06:02:15.952Z,2.42
2023-01-08T06:04:42.779Z,2.39
2023-01-08T06:07:09.570Z,2.37
2023-01-08T06:09:36.154Z,2.31
2023-01-08T06:12:02.777Z,2.38
2023-01-08T06:14:29.365Z,2.39
2023-01-08T06:16:55.932Z,2.43
2023-01-08T06:19:22.804Z,2.56
2023-01-08T06:21:50.556Z,2.60
2023-01-08T06:24:17.170Z,2.70
2023-01-08T06:26:43.855Z,2.67
2023-01-08T06:29:10.478Z,2.77
2023-01-08T06:31:37.200Z,2.78
2023-01-08T06:34:03.889Z,2.78
2023-01-08T06:36:30.543Z,2.87
2023-01-08T06:38:57.206Z,2.92
2023-01-08T06:41:23.861Z,2.92
2023-01-08T06:43:50.532Z,2.99
2023-01-08T06:46:17.149Z,3.13
2023-01-08T06:48:43.811Z,3.27
2023-01-08T06:51:10.624Z,3.23
2023-01-08T06:53:37.207Z,3.34
2023-01-08T06:56:04.488Z,3.38
2023-01-08T06:58:31.191Z,3.62
2023-01-08T07:00:59.074Z,3.77
2023-01-08T07:03:25.993Z,3.94
2023-01-08T07:05:52.977Z,4.14
2023-01-08T07:08:19.626Z,4.34
2023-01-08T07:10:46.389Z,4.43
2023-01-08T07:13:13.336Z,4.49
2023-01-08T07:15:40.701Z,4.53
2023-01-08T07:18:09.665Z,4.63
2023-01-08T07:20:37.196Z,4.77
2023-01-08T07:23:07.334Z,4.89
2023-01-08T07:25:33.915Z,5.11
2023-01-08T07:28:02.058Z,5.45
2023-01-08T07:30:30.484Z,5.66
2023-01-08T07:33:01.457Z,5.96
2023-01-08T07:35:28.883Z,6.21
2023-01-08T07:37:55.799Z,6.24
2023-01-08T07:40:22.772Z,6.59
2023-01-08T07:42:56.863Z,6.72
2023-01-08T07:45:23.498Z,6.67
2023-01-08T07:47:50.094Z,5.97
2023-01-08T07:50:16.837Z,6.20
2023-01-08T07:52:43.427Z,6.20
2023-01-08T07:55:10.109Z,6.77
2023-01-08T07:57:36.717Z,7.03
2023-01-08T08:00:03.589Z,7.07
2023-01-08T08:02:30.412Z,7.14
2023-01-08T08:04:57.026Z,7.13
2023-01-08T08:07:23.654Z,7.22
2023-01-08T08:09:50.255Z,7.12
2023-01-08T08:12:16.853Z,8.23
2023-01-08T08:14:43.443Z,8.35
2023-01-08T08:17:10.139Z,8.42
2023-01-08T08:19:36.745Z,8.06
2023-01-08T08:22:03.495Z,8.55
2023-01-08T08:24:30.075Z,9.11
2023-01-08T08:26:56.676Z,9.27
2023-01-08T08:29:23.321Z,10.11
2023-01-08T08:31:50.120Z,9.35
2023-01-08T08:34:16.681Z,9.17
2023-01-08T08:36:43.276Z,10.03
2023-01-08T08:39:10.132Z,10.59
2023-01-08T08:41:36.740Z,10.22
2023-01-08T08:44:03.376Z,10.94
2023-01-08T08:46:30.202Z,11.39
2023-01-08T08:48:57.060Z,10.76
2023-01-08T08:51:23.736Z,10.80
2023-01-08T08:53:50.310Z,11.02
2023-01-08T08:56:16.918Z,10.95
2023-01-08T08:58:45.303Z,10.57
2023-01-08T09:01:12.384Z,10.88
2023-01-08T09:03:39.125Z,10.82
2023-01-08T09:06:06.109Z,11.56
2023-01-08T09:08:32.770Z,11.75
2023-01-08T09:10:59.369Z,12.04
2023-01-08T09:13:26.027Z,12.13
2023-01-08T09:15:52.712Z,12.29
2023-01-08T09:18:19.336Z,12.35
2023-01-08T09:20:45.893Z,12.67
2023-01-08T09:23:12.491Z,12.27
2023-01-08T09:25:39.121Z,13.20
2023-01-08T09:28:08.985Z,13.98
2023-01-08T09:30:35.647Z,14.93
2023-01-08T09:33:03.795Z,15.00
2023-01-08T09:35:31.793Z,14.45
2023-01-08T09:37:58.780Z,15.40
2023-01-08T09:40:35.126Z,16.21
2023-01-08T09:43:03.736Z,15.74
2023-01-08T09:45:32.742Z,16.28
2023-01-08T09:48:04.920Z,16.31
2023-01-08T09:50:33.044Z,17.07
2023-01-08T09:53:00.751Z,17.69
2023-01-08T09:55:32.909Z,17.70
2023-01-08T09:58:03.024Z,16.77
2023-01-08T10:00:33.860Z,16.55
2023-01-08T10:03:00.782Z,16.62
2023-01-08T10:05:28.538Z,17.49
2023-01-08T10:07:55.271Z,17.33
2023-01-08T10:10:25.733Z,17.80
2023-01-08T10:12:53.939Z,17.87
2023-01-08T10:15:22.395Z,17.69
2023-01-08T10:18:05.733Z,18.30
2023-01-08T10:20:34.006Z,17.80
2023-01-08T10:23:11.154Z,18.38
2023-01-08T10:25:53.136Z,17.62
2023-01-08T10:28:25.644Z,17.99
2023-01-08T10:30:53.968Z,18.58
2023-01-08T10:33:24.878Z,19.16
2023-01-08T10:35:56.092Z,20.07
2023-01-08T10:38:33.644Z,20.25
2023-01-08T10:41:03.606Z,20.43
2023-01-08T10:43:34.916Z,20.97
2023-01-08T10:46:07.961Z,21.57
2023-01-08T10:48:38.544Z,21.81
2023-01-08T10:51:32.392Z,22.15
2023-01-08T10:54:01.436Z,22.93
2023-01-08T10:56:31.063Z,22.52
2023-01-08T10:58:57.970Z,22.96
2023-01-08T11:01:26.814Z,22.24
2023-01-08T11:03:57.922Z,22.76
2023-01-08T11:06:31.612Z,22.91
2023-01-08T11:09:00.713Z,23.46
2023-01-08T11:11:38.310Z,23.42
2023-01-08T11:14:20.092Z,24.43
2023-01-08T11:16:47.103Z,24.08
2023-01-08T11:19:19.737Z,23.04
2023-01-08T11:21:56.281Z,21.91
2023-01-08T11:24:27.447Z,22.79
2023-01-08T11:27:00.551Z,23.44
2023-01-08T11:29:45.885Z,24.21
2023-01-08T11:32:15.502Z,23.99
2023-01-08T11:34:57.304Z,23.02
2023-01-08T11:37:31.004Z,23.13
2023-01-08T11:39:57.806Z,23.37
2023-01-08T11:42:26.933Z,24.38
2023-01-08T11:45:10.791Z,23.00
2023-01-08T11:48:03.487Z,25.08
2023-01-08T11:50:39.943Z,26.18
2023-01-08T11:53:36.747Z,25.64
2023-01-08T11:56:38.444Z,25.16
2023-01-08T11:59:28.206Z,25.98
2023-01-08T12:02:22.713Z,26.01
2023-01-08T12:04:58.685Z,25.95
2023-01-08T12:07:34.485Z,26.09
2023-01-08T12:10:03.841Z,25.45
2023-01-08T12:12:51.625Z,25.06
2023-01-08T12:15:32.767Z,26.09
2023-01-08T12:18:12.668Z,25.67
2023-01-08T12:21:14.376Z,25.86
2023-01-08T12:24:00.407Z,25.23
2023-01-08T12:26:54.723Z,23.12
2023-01-08T12:29:27.271Z,22.99
2023-01-08T12:32:26.334Z,23.01
2023-01-08T12:35:00.647Z,23.19
2023-01-08T12:37:34.357Z,23.18
2023-01-08T12:40:38.521Z,24.38
2023-01-08T12:43:14.155Z,25.08
2023-01-08T12:45:47.495Z,24.67
2023-01-08T12:48:21.037Z,24.65
2023-01-08T12:50:58.010Z,24.12
2023-01-08T12:53:43.231Z,24.55
2023-01-08T12:56:34.400Z,24.65
2023-01-08T12:59:24.842Z,24.92
2023-01-08T13:02:34.764Z,24.11
2023-01-08T13:05:29.294Z,23.55
2023-01-08T13:08:02.608Z,22.68
2023-01-08T13:10:37.355Z,21.40
2023-01-08T13:13:05.948Z,21.64
2023-01-08T13:15:33.976Z,21.98
2023-01-08T13:18:15.438Z,22.25
2023-01-08T13:20:42.478Z,22.12
2023-01-08T13:23:25.853Z,22.47
2023-01-08T13:25:58.024Z,22.19
2023-01-08T13:28:45.034Z,23.02
2023-01-08T13:31:20.555Z,21.60
2023-01-08T13:33:49.200Z,21.01
2023-01-08T13:36:26.146Z,21.11
2023-01-08T13:39:06.870Z,20.67
2023-01-08T13:41:41.470Z,19.82
2023-01-08T13:44:42.682Z,19.65
2023-01-08T13:47:28.005Z,20.28
2023-01-08T13:49:56.013Z,20.69
2023-01-08T13:52:33.509Z,20.74
2023-01-08T13:55:11.904Z,20.53
2023-01-08T13:57:42.959Z,20.23
2023-01-08T14:00:19.298Z,18.43
2023-01-08T14:02:50.668Z,16.64
2023-01-08T14:05:34.671Z,14.88
2023-01-08T14:08:01.334Z,13.86
2023-01-08T14:10:29.594Z,13.20
2023-01-08T14:13:08.781Z,12.55
2023-01-08T14:15:36.038Z,12.11
2023-01-08T14:18:04.901Z,11.94
2023-01-08T14:20:37.894Z,11.73
2023-01-08T14:23:12.199Z,11.47
2023-01-08T14:25:40.706Z,11.37
2023-01-08T14:28:07.335Z,11.13
2023-01-08T14:30:35.694Z,10.96
2023-01-08T14:33:02.937Z,10.88
2023-01-08T14:35:33.710Z,10.77
2023-01-08T14:38:02.261Z,10.74
2023-01-08T14:40:32.200Z,10.57
2023-01-08T14:43:06.634Z,10.46
2023-01-08T14:45:34.526Z,10.29
2023-01-08T14:48:30.711Z,10.25
2023-01-08T14:51:06.320Z,10.14
2023-01-08T14:53:41.829Z,9.93
2023-01-08T14:56:13.772Z,9.78
2023-01-08T14:58:43.615Z,9.57
2023-01-08T15:01:19.607Z,9.31
2023-01-08T15:03:48.560Z,9.22
2023-01-08T15:06:29.920Z,9.10
2023-01-08T15:08:56.818Z,8.87
2023-01-08T15:11:31.915Z,8.72
2023-01-08T15:13:58.969Z,8.64
2023-01-08T15:16:38.911Z,8.54
2023-01-08T15:19:12.890Z,8.35
2023-01-08T15:21:45.619Z,8.12
2023-01-08T15:24:21.348Z,8.11
2023-01-08T15:26:47.950Z,7.98
2023-01-08T15:29:19.908Z,7.94
2023-01-08T15:31:48.798Z,7.82
2023-01-08T15:34:19.246Z,7.77
2023-01-08T15:36:46.935Z,7.68
2023-01-08T15:39:13.486Z,7.59
2023-01-08T15:41:59.051Z,7.54
2023-01-08T15:44:26.189Z,7.48
2023-01-08T15:46:53.049Z,7.25
2023-01-08T15:49:19.909Z,7.30
2023-01-08T15:51:51.939Z,7.25
2023-01-08T15:54:20.695Z,7.19
2023-01-08T15:56:47.323Z,7.19
2023-01-08T15:59:14.000Z,7.21
2023-01-08T16:01:40.807Z,7.12
2023-01-08T16:04:07.663Z,7.12
2023-01-08T16:06:36.118Z,7.10
2023-01-08T16:09:03.351Z,7.14
2023-01-08T16:11:29.979Z,7.01
2023-01-08T16:13:56.563Z,7.00
2023-01-08T16:16:23.264Z,6.89
2023-01-08T16:18:49.956Z,6.88
2023-01-08T16:21:16.601Z,6.77
2023-01-08T16:23:43.169Z,6.74
2023-01-08T16:26:15.166Z,6.68
2023-01-08T16:28:42.385Z,6.66
2023-01-08T16:31:09.696Z,6.63
2023-01-08T16:33:36.481Z,6.58
2023-01-08T16:36:07.447Z,6.52
2023-01-08T16:38:35.326Z,6.53
2023-01-08T16:41:02.095Z,6.51
2023-01-08T16:43:30.516Z,6.52
2023-01-08T16:46:03.034Z,6.46
2023-01-08T16:48:30.547Z,6.47
2023-01-08T16:51:05.303Z,6.49
2023-01-08T16:53:32.465Z,6.50
2023-01-08T16:56:00.173Z,6.49
2023-01-08T16:58:26.904Z,6.49
2023-01-08T17:00:53.582Z,6.41
2023-01-08T17:03:20.708Z,6.21
2023-01-08T17:05:47.393Z,6.25
2023-01-08T17:08:17.733Z,6.14
2023-01-08T17:10:44.429Z,6.13
2023-01-08T17:13:11.335Z,6.09
2023-01-08T17:15:38.793Z,6.05
2023-01-08T17:18:05.572Z,5.97
2023-01-08T17:20:32.436Z,5.96
2023-01-08T17:23:01.414Z,5.90
2023-01-08T17:25:28.070Z,5.94
2023-01-08T17:27:54.757Z,5.90
2023-01-08T17:30:21.503Z,5.94
2023-01-08T17:32:48.112Z,5.92
2023-01-08T17:35:14.869Z,5.93
2023-01-08T17:37:41.415Z,5.88
2023-01-08T17:40:08.862Z,5.85
2023-01-08T17:42:35.472Z,5.92
2023-01-08T17:45:05.583Z,5.93
2023-01-08T17:47:33.111Z,5.91
2023-01-08T17:50:02.250Z,5.92
2023-01-08T17:52:28.997Z,5.88
2023-01-08T17:54:55.624Z,5.75
2023-01-08T17:57:22.597Z,5.77
2023-01-08T17:59:49.326Z,5.76
2023-01-08T18:02:17.464Z,5.76
2023-01-08T18:04:45.670Z,5.75
2023-01-08T18:07:12.595Z,5.77
2023-01-08T18:09:39.211Z,5.74
2023-01-08T18:12:06.071Z,5.65
2023-01-08T18:14:34.981Z,5.71
2023-01-08T18:17:02.005Z,5.65
2023-01-08T18:19:28.798Z,5.62
2023-01-08T18:21:55.485Z,5.60
2023-01-08T18:24:22.176Z,5.59
2023-01-08T18:26:49.468Z,5.54
2023-01-08T18:29:16.830Z,5.54
2023-01-08T18:31:46.066Z,5.57
2023-01-08T18:34:15.071Z,5.61
2023-01-08T18:36:42.009Z,5.58
2023-01-08T18:39:08.708Z,5.55
2023-01-08T18:41:53.891Z,5.44
2023-01-08T18:44:20.648Z,5.44
2023-01-08T18:46:48.216Z,5.38
2023-01-08T18:49:15.221Z,5.33
2023-01-08T18:51:42.004Z,5.32
2023-01-08T18:54:08.627Z,5.27
2023-01-08T18:56:36.397Z,5.25
2023-01-08T18:59:04.965Z,5.31
2023-01-08T19:01:33.158Z,5.33
2023-01-08T19:03:59.785Z,5.25
2023-01-08T19:06:26.545Z,5.27
2023-01-08T19:08:53.359Z,5.25
2023-01-08T19:11:20.363Z,5.28
2023-01-08T19:13:47.063Z,5.29
2023-01-08T19:16:14.499Z,5.32
2023-01-08T19:18:41.520Z,5.41
2023-01-08T19:21:09.751Z,5.26
2023-01-08T19:23:36.683Z,5.34
2023-01-08T19:26:07.934Z,5.43
2023-01-08T19:28:34.659Z,5.46
2023-01-08T19:31:01.926Z,5.32
2023-01-08T19:33:28.654Z,5.36
2023-01-08T19:35:55.290Z,5.34
2023-01-08T19:38:21.934Z,5.28
2023-01-08T19:40:48.541Z,5.41
2023-01-08T19:43:33.661Z,5.37
2023-01-08T19:46:06.949Z,5.38
2023-01-08T19:48:34.519Z,5.44
2023-01-08T19:51:09.399Z,5.38
2023-01-08T19:53:36.204Z,5.32
2023-01-08T19:56:09.032Z,5.30
2023-01-08T19:58:35.874Z,5.21
2023-01-08T20:01:23.031Z,5.17
2023-01-08T20:03:49.948Z,5.16
2023-01-08T20:06:22.327Z,5.09
2023-01-08T20:08:54.302Z,5.09
2023-01-08T20:11:22.411Z,5.08
2023-01-08T20:13:50.226Z,5.06
2023-01-08T20:16:19.014Z,5.05
2023-01-08T20:18:46.001Z,4.99
2023-01-08T20:21:15.572Z,4.97
2023-01-08T20:23:42.985Z,4.89
2023-01-08T20:26:14.468Z,4.89
2023-01-08T20:28:42.528Z,4.90
2023-01-08T20:31:18.606Z,4.94
2023-01-08T20:33:45.928Z,4.91
2023-01-08T20:36:21.440Z,4.84
2023-01-08T20:38:53.301Z,4.80
2023-01-08T20:41:20.687Z,4.81
2023-01-08T20:43:49.170Z,4.79
2023-01-08T20:46:15.876Z,4.77
2023-01-08T20:48:47.603Z,4.80
2023-01-08T20:51:15.834Z,4.81
2023-01-08T20:53:42.616Z,4.81
2023-01-08T20:56:13.033Z,4.82
2023-01-08T20:58:41.710Z,4.74
2023-01-08T21:01:21.314Z,4.78
2023-01-08T21:03:49.318Z,4.82
2023-01-08T21:06:18.836Z,4.86
2023-01-08T21:08:49.471Z,4.96
2023-01-08T21:11:17.383Z,4.95
2023-01-08T21:13:44.084Z,4.96
2023-01-08T21:16:16.789Z,4.84
2023-01-08T21:18:47.232Z,4.96
2023-01-08T21:21:16.226Z,4.95
2023-01-08T21:23:43.129Z,4.97
2023-01-08T21:26:12.021Z,4.92
2023-01-08T21:28:40.057Z,4.94
2023-01-08T21:31:11.312Z,5.04
2023-01-08T21:33:38.400Z,5.02
2023-01-08T21:36:07.903Z,4.95
2023-01-08T21:38:35.660Z,4.93
2023-01-08T21:41:04.413Z,4.96
2023-01-08T21:43:49.905Z,4.81
2023-01-08T21:46:17.579Z,4.79
2023-01-08T21:48:49.837Z,4.88
2023-01-08T21:51:35.759Z,4.94
2023-01-08T21:54:02.664Z,4.92
2023-01-08T21:56:30.353Z,4.93
2023-01-08T21:58:56.969Z,4.81
2023-01-08T22:01:23.645Z,4.76
2023-01-08T22:03:50.334Z,4.86
2023-01-08T22:06:16.959Z,4.82
2023-01-08T22:08:43.562Z,4.83
2023-01-08T22:11:10.103Z,4.80
2023-01-08T22:13:38.203Z,4.82
2023-01-08T22:16:08.617Z,4.83
2023-01-08T22:18:36.323Z,4.80
2023-01-08T22:21:15.359Z,4.68
2023-01-08T22:23:41.906Z,4.70
2023-01-08T22:26:11.949Z,4.58
2023-01-08T22:28:39.463Z,4.53
2023-01-08T22:31:12.183Z,4.57
2023-01-08T22:33:39.804Z,4.50
2023-01-08T22:36:08.611Z,4.52
2023-01-08T22:38:35.810Z,4.49
2023-01-08T22:41:02.982Z,4.49
2023-01-08T22:43:29.821Z,4.44
2023-01-08T22:45:59.311Z,4.46
2023-01-08T22:48:27.680Z,4.38
2023-01-08T22:50:54.795Z,4.36
2023-01-08T22:53:21.690Z,4.29
2023-01-08T22:55:48.536Z,4.41
2023-01-08T22:58:16.758Z,4.46
2023-01-08T23:00:44.572Z,4.45
2023-01-08T23:03:11.675Z,4.35
2023-01-08T23:05:38.295Z,4.38
2023-01-08T23:08:05.431Z,4.30
2023-01-08T23:10:32.402Z,4.19
2023-01-08T23:12:59.183Z,4.28
2023-01-08T23:15:25.977Z,4.22
2023-01-08T23:17:53.002Z,4.08
2023-01-08T23:20:21.065Z,4.00
2023-01-08T23:22:48.186Z,4.00
2023-01-08T23:25:15.556Z,3.94
2023-01-08T23:27:42.174Z,3.99
2023-01-08T23:30:09.406Z,3.99
2023-01-08T23:32:35.992Z,3.98
2023-01-08T23:35:02.542Z,3.81
2023-01-08T23:37:29.122Z,3.74
2023-01-08T23:39:55.786Z,3.77
2023-01-08T23:42:22.336Z,3.65
2023-01-08T23:44:49.799Z,3.63
2023-01-08T23:47:16.420Z,3.64
2023-01-08T23:49:42.985Z,3.67
2023-01-08T23:52:09.715Z,3.63
2023-01-08T23:54:36.376Z,3.65
2023-01-08T23:57:06.048Z,3.57
2023-01-08T23:59:33.021Z,3.59
